Time;durP1;ratioP1;P1;durP2;ratioP2;P2;SDS_P1;SDS_P2;PMS_P1;PMS_P2;Temp;Humidity;BMP_temperature;BMP_pressure;BME280_temperature;BME280_humidity;BME280_pressure;Samples;Min_cycle;Max_cycle;Signal;HPM_P1;HPM_P2
2023/09/07 00:01:34;;;;;;;7.63;5.33;;;;;;;;;;5075303;28;20194;-73
2023/09/07 00:04:03;;;;;;;8.00;6.40;;;;;;;;;;5076163;28;20613;-72
2023/09/07 00:06:30;;;;;;;7.60;6.13;;;;;;;;;;5076342;28;20185;-72
2023/09/07 00:08:57;;;;;;;8.87;6.87;;;;;;;;;;5058667;28;20197;-72
2023/09/07 00:11:23;;;;;;;7.33;6.60;;;;;;;;;;5059102;28;20306;-72
2023/09/07 00:13:50;;;;;;;8.00;6.83;;;;;;;;;;5058446;28;20596;-73
2023/09/07 00:16:17;;;;;;;7.30;6.50;;;;;;;;;;5075795;28;20655;-73
2023/09/07 00:18:44;;;;;;;9.90;7.47;;;;;;;;;;5058505;28;20200;-72
2023/09/07 00:21:11;;;;;;;9.73;7.23;;;;;;;;;;5075860;28;20174;-72
2023/09/07 00:23:55;;;;;;;10.03;7.97;;;;;;;;;;5075178;28;20561;-73
2023/09/07 00:26:22;;;;;;;8.60;7.43;;;;;;;;;;5041329;28;20190;-73
2023/09/07 00:28:49;;;;;;;7.70;5.90;;;;;;;;;;5076033;28;20194;-73
2023/09/07 00:35:16;;;;;;;7.50;6.70;;;;;;;;;;5075577;28;20165;-73
2023/09/07 00:37:43;;;;;;;10.90;8.13;;;;;;;;;;5075880;28;20621;-72
2023/09/07 00:40:10;;;;;;;7.77;6.83;;;;;;;;;;5076075;28;20548;-73
2023/09/07 00:42:37;;;;;;;12.07;9.77;;;;;;;;;;5057746;28;20186;-72
2023/09/07 00:45:05;;;;;;;7.83;6.13;;;;;;;;;;5057869;28;20549;-73
2023/09/07 00:47:32;;;;;;;8.37;6.37;;;;;;;;;;5057907;28;20528;-72
2023/09/07 00:49:59;;;;;;;10.80;8.17;;;;;;;;;;5057612;28;20247;-73
2023/09/07 00:56:18;;;;;;;7.43;6.20;;;;;;;;;;5075507;28;20177;-73
2023/09/07 00:58:45;;;;;;;9.43;6.03;;;;;;;;;;5057376;28;20283;-73
2023/09/07 01:01:12;;;;;;;8.47;6.30;;;;;;;;;;5057427;28;20193;-73
2023/09/07 01:03:39;;;;;;;9.93;7.67;;;;;;;;;;5057377;28;20186;-73
2023/09/07 01:06:06;;;;;;;14.43;8.67;;;;;;;;;;5057247;28;20665;-73
2023/09/07 01:08:44;;;;;;;15.53;8.23;;;;;;;;;;5075718;28;20235;-73
2023/09/07 01:51:30;;;;;;;19.07;12.50;;;;;;;;;;5074098;28;20216;-73
2023/09/07 01:53:57;;;;;;;18.83;12.57;;;;;;;;;;5056288;28;20252;-73
2023/09/07 02:00:40;;;;;;;17.17;11.83;;;;;;;;;;5074310;28;20264;-73
2023/09/07 02:03:07;;;;;;;19.70;12.57;;;;;;;;;;5074455;28;20251;-73
2023/09/07 02:13:33;;;;;;;15.33;9.80;;;;;;;;;;5054073;28;20553;-73
2023/09/07 02:16:06;;;;;;;13.70;9.83;;;;;;;;;;5036858;28;20277;-73
2023/09/07 02:22:34;;;;;;;14.37;9.47;;;;;;;;;;5054237;28;20150;-73
2023/09/07 02:25:01;;;;;;;15.27;10.23;;;;;;;;;;5053130;28;20202;-73
2023/09/07 02:27:28;;;;;;;12.37;9.93;;;;;;;;;;5035916;28;20187;-73
2023/09/07 02:29:55;;;;;;;12.73;9.97;;;;;;;;;;5035690;28;20191;-73
2023/09/07 02:32:21;;;;;;;13.07;9.33;;;;;;;;;;5035945;28;20222;-73
2023/09/07 02:38:58;;;;;;;11.27;9.43;;;;;;;;;;5053370;28;20149;-73
2023/09/07 02:41:26;;;;;;;11.40;9.53;;;;;;;;;;5036522;28;20562;-71
2023/09/07 02:43:52;;;;;;;11.93;9.57;;;;;;;;;;5035730;28;20244;-73
2023/09/07 02:46:19;;;;;;;11.93;9.50;;;;;;;;;;5053576;28;20389;-73
2023/09/07 02:48:46;;;;;;;9.70;7.70;;;;;;;;;;5054113;28;20185;-73
2023/09/07 02:55:12;;;;;;;8.40;7.37;;;;;;;;;;5053495;28;20186;-74
2023/09/07 02:57:40;;;;;;;11.87;8.37;;;;;;;;;;5052618;28;20179;-73
2023/09/07 03:00:10;;;;;;;12.27;7.77;;;;;;;;;;5053036;28;20217;-74
2023/09/07 03:06:36;;;;;;;11.17;7.47;;;;;;;;;;5053232;28;20673;-73
2023/09/07 03:09:08;;;;;;;8.03;7.27;;;;;;;;;;5035517;28;20530;-73
2023/09/07 03:15:48;;;;;;;8.27;6.80;;;;;;;;;;5053530;28;20200;-73
2023/09/07 03:18:21;;;;;;;10.37;6.50;;;;;;;;;;5035826;28;20197;-73
2023/09/07 03:20:48;;;;;;;10.47;7.43;;;;;;;;;;5035454;28;20198;-74
2023/09/07 03:23:15;;;;;;;8.50;7.47;;;;;;;;;;5035399;28;20252;-73
2023/09/07 03:25:43;;;;;;;9.90;8.23;;;;;;;;;;5035379;28;20221;-73
2023/09/07 03:28:10;;;;;;;12.90;9.27;;;;;;;;;;5035339;28;20199;-74
2023/09/07 03:30:38;;;;;;;12.03;7.67;;;;;;;;;;5053623;28;20191;-73
2023/09/07 03:33:05;;;;;;;17.97;10.07;;;;;;;;;;5035585;28;20552;-73
2023/09/07 03:35:32;;;;;;;8.97;6.70;;;;;;;;;;5053222;28;20211;-73
2023/09/07 03:41:58;;;;;;;8.77;6.83;;;;;;;;;;5053170;28;20193;-74
2023/09/07 03:44:25;;;;;;;10.27;6.73;;;;;;;;;;5035054;28;20195;-73
2023/09/07 03:47:12;;;;;;;11.10;6.93;;;;;;;;;;5035427;28;20186;-73
2023/09/07 03:49:39;;;;;;;10.63;7.43;;;;;;;;;;5034840;28;20248;-71
2023/09/07 03:56:01;;;;;;;9.37;6.77;;;;;;;;;;5056416;28;20527;-71
2023/09/07 03:58:28;;;;;;;11.30;7.73;;;;;;;;;;5038596;28;20626;-71
2023/09/07 04:05:07;;;;;;;10.73;7.73;;;;;;;;;;5052940;28;20205;-72
2023/09/07 04:07:38;;;;;;;18.03;8.17;;;;;;;;;;5019305;28;20191;-72
2023/09/07 04:10:05;;;;;;;16.37;9.20;;;;;;;;;;5052318;28;20190;-72
2023/09/07 04:16:31;;;;;;;13.40;10.13;;;;;;;;;;5056302;28;20257;-70
2023/09/07 04:18:59;;;;;;;10.73;8.27;;;;;;;;;;5038450;28;20194;-69
2023/09/07 04:25:20;;;;;;;21.50;18.37;;;;;;;;;;5055971;28;20369;-72
2023/09/07 04:31:40;;;;;;;23.57;16.70;;;;;;;;;;5056139;28;20154;-71
2023/09/07 04:38:08;;;;;;;17.60;13.60;;;;;;;;;;5056043;28;20250;-71
2023/09/07 04:40:36;;;;;;;18.00;16.00;;;;;;;;;;5056278;28;20294;-71
2023/09/07 04:43:03;;;;;;;16.23;14.17;;;;;;;;;;5039017;28;20193;-71
2023/09/07 04:45:30;;;;;;;14.87;12.40;;;;;;;;;;5038019;28;20243;-71
2023/09/07 04:47:57;;;;;;;18.03;14.67;;;;;;;;;;5038090;28;20214;-71
2023/09/07 04:50:25;;;;;;;16.90;14.30;;;;;;;;;;5021775;28;20225;-71
2023/09/07 04:52:52;;;;;;;20.10;14.27;;;;;;;;;;5038381;28;20189;-71
2023/09/07 04:55:20;;;;;;;19.50;14.50;;;;;;;;;;5037833;28;20183;-71
2023/09/07 04:57:47;;;;;;;16.80;14.17;;;;;;;;;;5041583;28;20277;-71
2023/09/07 05:00:15;;;;;;;15.57;13.87;;;;;;;;;;5057313;28;20308;-71
2023/09/07 05:02:43;;;;;;;17.00;13.30;;;;;;;;;;5075253;28;20220;-71
2023/09/07 05:05:10;;;;;;;21.57;14.07;;;;;;;;;;5058640;28;20206;-70
2023/09/07 05:07:40;;;;;;;21.07;14.20;;;;;;;;;;5057687;28;20193;-70
2023/09/07 05:10:14;;;;;;;19.27;13.97;;;;;;;;;;5057217;28;20276;-73
2023/09/07 05:16:43;;;;;;;16.73;12.53;;;;;;;;;;5075188;28;20156;-71
2023/09/07 05:23:12;;;;;;;17.37;13.70;;;;;;;;;;5075200;28;20153;-70
2023/09/07 05:25:44;;;;;;;15.30;12.63;;;;;;;;;;5040885;28;20217;-70
2023/09/07 05:28:14;;;;;;;16.57;13.03;;;;;;;;;;5041693;28;20274;-71
2023/09/07 05:30:42;;;;;;;17.80;14.60;;;;;;;;;;5057075;28;20186;-70
2023/09/07 05:33:12;;;;;;;20.20;15.47;;;;;;;;;;5040778;28;20190;-68
2023/09/07 05:35:42;;;;;;;18.30;16.37;;;;;;;;;;5041000;28;20211;-71
2023/09/07 05:42:09;;;;;;;19.00;16.80;;;;;;;;;;5074537;28;20180;-71
2023/09/07 05:48:36;;;;;;;23.17;20.67;;;;;;;;;;5075130;28;20164;-71
2023/09/07 05:51:04;;;;;;;24.70;20.93;;;;;;;;;;5074635;28;20178;-71
2023/09/07 05:57:24;;;;;;;26.37;19.90;;;;;;;;;;5074699;28;20149;-71
2023/09/07 05:59:52;;;;;;;24.50;20.07;;;;;;;;;;5056819;28;20757;-72
2023/09/07 06:02:19;;;;;;;23.77;19.00;;;;;;;;;;5057105;28;20225;-71
2023/09/07 06:08:46;;;;;;;31.87;23.63;;;;;;;;;;5074752;28;20208;-71
2023/09/07 06:11:19;;;;;;;31.30;23.53;;;;;;;;;;5040469;28;20193;-71
2023/09/07 06:13:47;;;;;;;29.60;22.93;;;;;;;;;;5073482;28;20194;-70
2023/09/07 06:16:14;;;;;;;35.40;24.00;;;;;;;;;;5072470;28;20189;-70
2023/09/07 06:18:41;;;;;;;34.30;24.30;;;;;;;;;;5056411;28;20213;-69
2023/09/07 06:21:08;;;;;;;28.83;21.87;;;;;;;;;;5056548;28;20194;-72
2023/09/07 06:23:35;;;;;;;25.43;20.17;;;;;;;;;;5056672;28;20202;-69
2023/09/07 06:26:03;;;;;;;26.27;21.27;;;;;;;;;;5073808;28;20282;-69
2023/09/07 06:32:23;;;;;;;20.70;16.77;;;;;;;;;;5074251;28;20165;-71
2023/09/07 06:38:44;;;;;;;21.87;14.27;;;;;;;;;;5073842;28;20157;-72
2023/09/07 06:45:11;;;;;;;16.17;11.87;;;;;;;;;;5073307;28;20208;-71
2023/09/07 06:47:39;;;;;;;10.97;9.83;;;;;;;;;;5073854;28;20625;-72
2023/09/07 06:50:08;;;;;;;11.43;8.27;;;;;;;;;;5056033;28;20522;-72
2023/09/07 06:52:35;;;;;;;12.47;7.93;;;;;;;;;;5056084;28;20280;-72
2023/09/07 06:55:03;;;;;;;8.40;7.50;;;;;;;;;;5056003;28;20281;-72
2023/09/07 06:57:31;;;;;;;10.17;8.33;;;;;;;;;;5039779;28;20196;-69
2023/09/07 07:03:59;;;;;;;13.33;8.43;;;;;;;;;;5069977;28;20157;-72
2023/09/07 07:10:26;;;;;;;11.07;7.83;;;;;;;;;;5073395;28;20249;-70
2023/09/07 07:12:53;;;;;;;12.00;8.90;;;;;;;;;;5055406;28;20726;-72
2023/09/07 07:19:14;;;;;;;8.83;7.30;;;;;;;;;;5073550;28;20553;-68
2023/09/07 07:21:42;;;;;;;20.40;7.80;;;;;;;;;;5056621;28;20583;-70
2023/09/07 07:24:10;;;;;;;10.50;7.10;;;;;;;;;;5055540;28;20194;-70
2023/09/07 07:30:38;;;;;;;8.97;6.50;;;;;;;;;;5077005;28;20185;-70
2023/09/07 07:33:05;;;;;;;6.70;5.50;;;;;;;;;;5043025;28;20216;-71
2023/09/07 07:39:26;;;;;;;17.03;6.83;;;;;;;;;;5076887;28;20148;-70
2023/09/07 07:41:54;;;;;;;7.83;5.77;;;;;;;;;;5059039;28;20223;-70
2023/09/07 07:48:22;;;;;;;9.50;6.00;;;;;;;;;;5076724;28;20214;-69
2023/09/07 07:50:49;;;;;;;7.20;4.93;;;;;;;;;;5059356;28;20280;-71
2023/09/07 07:53:17;;;;;;;7.83;5.43;;;;;;;;;;5058794;28;20632;-70
2023/09/07 07:59:47;;;;;;;5.80;5.07;;;;;;;;;;5076555;28;20222;-68
2023/09/07 08:02:15;;;;;;;6.47;4.73;;;;;;;;;;5058953;28;20193;-69
2023/09/07 08:08:59;;;;;;;6.60;5.77;;;;;;;;;;5076255;28;20219;-70
2023/09/07 08:11:28;;;;;;;10.53;5.73;;;;;;;;;;5058724;28;20193;-69
2023/09/07 08:13:55;;;;;;;6.80;5.23;;;;;;;;;;5058657;28;20233;-70
2023/09/07 08:16:25;;;;;;;7.10;5.07;;;;;;;;;;5058478;28;20193;-69
2023/09/07 08:18:53;;;;;;;6.27;4.77;;;;;;;;;;5059303;28;20194;-69
2023/09/07 08:21:22;;;;;;;8.27;4.80;;;;;;;;;;5057483;28;20664;-69
2023/09/07 08:27:49;;;;;;;8.43;4.90;;;;;;;;;;5075990;28;20723;-70
2023/09/07 08:34:16;;;;;;;10.97;6.67;;;;;;;;;;5075789;28;20253;-71
2023/09/07 08:36:46;;;;;;;9.77;6.67;;;;;;;;;;5057653;28;20198;-70
2023/09/07 08:43:45;;;;;;;10.57;5.57;;;;;;;;;;5076672;28;20184;-77
2023/09/07 08:50:14;;;;;;;7.03;4.93;;;;;;;;;;5076758;28;20705;-79
2023/09/07 08:52:45;;;;;;;7.83;5.47;;;;;;;;;;5060645;28;20248;-78
2023/09/07 09:03:18;;;;;;;8.43;6.00;;;;;;;;;;5078246;28;20210;-87
2023/09/07 09:05:47;;;;;;;11.37;6.00;;;;;;;;;;5060485;28;20234;-82
2023/09/07 09:08:18;;;;;;;12.20;6.93;;;;;;;;;;5060275;28;20623;-84
2023/09/07 09:10:44;;;;;;;9.70;6.20;;;;;;;;;;5075396;28;20169;-70
2023/09/07 09:13:12;;;;;;;11.07;7.33;;;;;;;;;;5074900;28;20228;-69
2023/09/07 09:19:41;;;;;;;10.40;7.07;;;;;;;;;;5068624;28;20661;-69
2023/09/07 09:22:11;;;;;;;9.07;6.77;;;;;;;;;;5057270;28;20285;-70
2023/09/07 09:24:42;;;;;;;9.93;5.60;;;;;;;;;;5041657;28;20650;-70
2023/09/07 09:31:16;;;;;;;10.93;5.70;;;;;;;;;;5074704;28;20194;-69
2023/09/07 09:33:47;;;;;;;9.37;5.70;;;;;;;;;;5074467;28;20185;-70
2023/09/07 09:40:10;;;;;;;8.33;5.77;;;;;;;;;;5074615;28;20199;-71
2023/09/07 09:42:38;;;;;;;7.40;5.20;;;;;;;;;;5043909;28;20652;-72
2023/09/07 09:49:04;;;;;;;7.93;5.33;;;;;;;;;;5073792;28;20169;-70
2023/09/07 09:51:32;;;;;;;6.03;5.40;;;;;;;;;;5074364;28;20183;-70
2023/09/07 09:54:00;;;;;;;8.20;5.30;;;;;;;;;;5056439;28;20196;-71
2023/09/07 09:56:27;;;;;;;7.37;4.63;;;;;;;;;;5039491;28;20690;-70
2023/09/07 09:58:54;;;;;;;5.57;4.20;;;;;;;;;;5056511;28;20199;-70
2023/09/07 10:01:22;;;;;;;6.20;5.00;;;;;;;;;;5056243;28;20215;-70
2023/09/07 10:03:50;;;;;;;6.60;4.23;;;;;;;;;;5074359;28;20196;-70
2023/09/07 10:10:17;;;;;;;5.67;4.27;;;;;;;;;;5074157;28;20217;-68
2023/09/07 10:12:45;;;;;;;7.23;4.40;;;;;;;;;;5072669;28;20208;-72
2023/09/07 10:15:21;;;;;;;4.87;4.20;;;;;;;;;;5056011;28;20676;-68
2023/09/07 10:17:50;;;;;;;6.33;4.73;;;;;;;;;;5056492;28;20224;-70
2023/09/07 10:20:23;;;;;;;7.83;4.97;;;;;;;;;;5056241;28;20193;-70
2023/09/07 10:22:50;;;;;;;16.03;5.20;;;;;;;;;;5057242;28;20726;-70
2023/09/07 10:25:22;;;;;;;5.37;4.87;;;;;;;;;;5040244;28;20198;-71
2023/09/07 10:27:52;;;;;;;7.37;4.07;;;;;;;;;;5056750;28;20176;-69
2023/09/07 10:34:14;;;;;;;6.30;3.90;;;;;;;;;;5073725;28;20153;-69
2023/09/07 10:36:59;;;;;;;5.47;4.00;;;;;;;;;;5055843;28;20548;-71
2023/09/07 10:39:29;;;;;;;5.10;4.07;;;;;;;;;;5055968;28;20197;-69
2023/09/07 10:41:56;;;;;;;6.37;4.40;;;;;;;;;;5039571;28;20239;-71
2023/09/07 10:44:27;;;;;;;5.67;4.10;;;;;;;;;;5039463;28;20186;-72
2023/09/07 10:46:55;;;;;;;4.20;3.80;;;;;;;;;;5056043;28;20186;-70
2023/09/07 10:53:24;;;;;;;6.37;3.83;;;;;;;;;;5074083;28;20154;-76
2023/09/07 10:56:00;;;;;;;5.60;4.43;;;;;;;;;;5058022;28;20255;-74
2023/09/07 10:58:33;;;;;;;4.50;4.10;;;;;;;;;;5051134;28;20197;-81
2023/09/07 11:01:20;;;;;;;4.30;3.50;;;;;;;;;;5078110;28;20187;-76
2023/09/07 11:07:49;;;;;;;5.33;4.30;;;;;;;;;;5079500;28;20232;-76
2023/09/07 11:10:16;;;;;;;7.07;4.20;;;;;;;;;;5063078;28;20240;-84
2023/09/07 11:12:43;;;;;;;5.73;4.20;;;;;;;;;;5062055;28;20741;-77
2023/09/07 11:19:11;;;;;;;8.33;4.60;;;;;;;;;;5080120;28;20161;-78
2023/09/07 11:21:39;;;;;;;6.00;4.60;;;;;;;;;;5047066;28;20186;-78
2023/09/07 11:24:08;;;;;;;11.63;4.53;;;;;;;;;;5028984;28;20187;-81
2023/09/07 11:30:34;;;;;;;5.90;4.03;;;;;;;;;;5080112;28;20231;-81
2023/09/07 11:37:02;;;;;;;8.23;4.50;;;;;;;;;;5079514;28;20260;-80
2023/09/07 11:39:29;;;;;;;9.23;5.03;;;;;;;;;;5048904;28;20175;-83
2023/09/07 11:49:51;;;;;;;5.47;4.63;;;;;;;;;;5057788;28;20237;-74
2023/09/07 11:56:17;;;;;;;7.20;5.07;;;;;;;;;;5076439;28;20241;-73
2023/09/07 12:02:44;;;;;;;15.73;5.80;;;;;;;;;;5074626;28;20225;-73
2023/09/07 12:12:27;;;;;;;6.27;4.73;;;;;;;;;;5057534;28;20321;-71
2023/09/07 12:18:53;;;;;;;5.70;4.60;;;;;;;;;;5070733;28;20206;-70
2023/09/07 12:21:20;;;;;;;5.07;3.97;;;;;;;;;;5057844;28;20186;-70
2023/09/07 12:27:50;;;;;;;6.50;4.37;;;;;;;;;;5075998;28;20201;-70
2023/09/07 12:33:32;;;;;;;10.83;4.70;;;;;;;;;;5058296;28;20284;-71
2023/09/07 12:40:12;;;;;;;8.27;3.97;;;;;;;;;;5064301;28;20193;-70
2023/09/07 12:42:43;;;;;;;8.23;4.40;;;;;;;;;;5052546;28;20191;-71
2023/09/07 12:49:04;;;;;;;4.40;3.40;;;;;;;;;;5075714;28;20588;-70
2023/09/07 12:59:24;;;;;;;5.43;3.60;;;;;;;;;;5075696;28;20195;-69
2023/09/07 13:09:57;;;;;;;6.57;4.43;;;;;;;;;;5075796;28;20292;-76
2023/09/07 13:16:23;;;;;;;7.63;3.83;;;;;;;;;;5075785;28;20168;-74
2023/09/07 13:18:51;;;;;;;5.63;3.70;;;;;;;;;;5057827;28;20195;-75
2023/09/07 13:25:18;;;;;;;6.20;3.73;;;;;;;;;;5075506;28;20577;-70
2023/09/07 13:27:45;;;;;;;6.97;3.83;;;;;;;;;;5074676;28;20229;-72
2023/09/07 13:30:12;;;;;;;6.03;3.90;;;;;;;;;;5057362;28;20186;-71
2023/09/07 13:32:39;;;;;;;4.53;3.53;;;;;;;;;;5041077;28;20617;-71
2023/09/07 13:35:07;;;;;;;4.87;3.33;;;;;;;;;;5057315;28;20280;-70
2023/09/07 13:37:35;;;;;;;11.53;3.90;;;;;;;;;;5057237;28;20190;-70
2023/09/07 13:40:03;;;;;;;12.70;3.83;;;;;;;;;;5057088;28;20190;-70
2023/09/07 13:42:30;;;;;;;6.27;3.17;;;;;;;;;;5024683;28;20687;-70
2023/09/07 13:44:58;;;;;;;4.77;3.50;;;;;;;;;;5041126;28;20190;-70
2023/09/07 13:47:27;;;;;;;5.73;3.17;;;;;;;;;;5024118;28;20214;-68
2023/09/07 13:49:58;;;;;;;4.73;3.20;;;;;;;;;;5056809;28;20194;-69
2023/09/07 13:52:26;;;;;;;10.67;4.60;;;;;;;;;;5056764;28;20192;-70
2023/09/07 13:54:54;;;;;;;7.00;3.47;;;;;;;;;;5040467;28;20727;-71
2023/09/07 14:01:24;;;;;;;8.77;3.40;;;;;;;;;;5074489;28;20181;-70
2023/09/07 14:03:52;;;;;;;6.07;3.10;;;;;;;;;;5041428;28;20529;-70
2023/09/07 14:06:23;;;;;;;5.83;3.50;;;;;;;;;;5055891;28;20217;-71
2023/09/07 14:08:51;;;;;;;4.77;3.10;;;;;;;;;;5073821;28;20177;-71
2023/09/07 14:15:18;;;;;;;3.70;3.20;;;;;;;;;;5074631;28;20189;-70
2023/09/07 14:21:39;;;;;;;5.33;3.27;;;;;;;;;;5074329;28;20563;-72
2023/09/07 14:28:06;;;;;;;6.83;2.80;;;;;;;;;;5074218;28;20198;-71
2023/09/07 14:30:34;;;;;;;4.87;2.90;;;;;;;;;;5056304;28;20194;-72
2023/09/07 14:33:02;;;;;;;4.70;3.00;;;;;;;;;;5039600;28;20190;-71
2023/09/07 14:35:30;;;;;;;6.47;3.00;;;;;;;;;;5055693;28;20182;-71
2023/09/07 14:37:57;;;;;;;6.33;2.87;;;;;;;;;;5056328;28;20190;-71
2023/09/07 14:40:25;;;;;;;5.07;3.00;;;;;;;;;;5055933;28;20186;-71
2023/09/07 14:42:57;;;;;;;5.23;3.30;;;;;;;;;;5072733;28;20244;-70
2023/09/07 14:45:27;;;;;;;5.13;3.10;;;;;;;;;;5041588;28;20190;-71
2023/09/07 14:47:57;;;;;;;6.30;3.10;;;;;;;;;;5019617;28;20221;-71
2023/09/07 14:50:27;;;;;;;3.87;3.03;;;;;;;;;;5032977;28;20181;-70
2023/09/07 14:52:54;;;;;;;4.07;2.80;;;;;;;;;;5056329;28;20516;-72
2023/09/07 14:55:22;;;;;;;5.17;3.07;;;;;;;;;;5073726;28;20178;-71
2023/09/07 14:57:49;;;;;;;3.83;2.73;;;;;;;;;;5055758;28;20275;-72
2023/09/07 15:00:19;;;;;;;3.47;2.83;;;;;;;;;;5040711;28;20284;-71
2023/09/07 15:02:49;;;;;;;6.57;3.20;;;;;;;;;;5056227;28;20226;-71
2023/09/07 15:05:16;;;;;;;4.97;3.13;;;;;;;;;;5073826;28;20218;-71
2023/09/07 15:07:45;;;;;;;4.07;2.50;;;;;;;;;;5055792;28;20688;-71
2023/09/07 15:10:13;;;;;;;3.83;3.03;;;;;;;;;;5056128;28;20181;-71
2023/09/07 15:12:42;;;;;;;6.03;2.90;;;;;;;;;;5039502;28;20218;-71
2023/09/07 15:15:10;;;;;;;3.57;2.80;;;;;;;;;;5055746;28;20190;-71
2023/09/07 15:21:37;;;;;;;5.57;3.40;;;;;;;;;;5066730;28;20149;-72
2023/09/07 15:28:05;;;;;;;5.37;3.03;;;;;;;;;;5073660;28;20227;-70
2023/09/07 15:30:33;;;;;;;4.03;2.53;;;;;;;;;;5055511;28;20193;-71
2023/09/07 15:33:00;;;;;;;4.00;2.73;;;;;;;;;;5072659;28;20215;-70
2023/09/07 15:35:28;;;;;;;3.93;2.70;;;;;;;;;;5065106;28;20231;-69
2023/09/07 15:41:56;;;;;;;4.23;2.70;;;;;;;;;;5073611;28;20602;-71
2023/09/07 15:44:28;;;;;;;3.87;2.70;;;;;;;;;;5031368;28;20193;-69
2023/09/07 15:50:49;;;;;;;5.40;2.60;;;;;;;;;;5037005;28;20230;-69
2023/09/07 15:53:17;;;;;;;4.53;2.43;;;;;;;;;;5057495;28;20180;-69
2023/09/07 15:59:45;;;;;;;4.83;2.73;;;;;;;;;;5056635;28;20162;-69
2023/09/07 16:06:14;;;;;;;4.90;3.20;;;;;;;;;;5075144;28;20276;-72
2023/09/07 16:08:41;;;;;;;8.63;3.70;;;;;;;;;;5077148;28;20233;-72
2023/09/07 16:11:09;;;;;;;4.07;2.80;;;;;;;;;;5056136;28;20233;-70
2023/09/07 16:13:37;;;;;;;5.03;2.80;;;;;;;;;;5025666;28;20219;-71
2023/09/07 16:16:04;;;;;;;5.23;2.47;;;;;;;;;;5076566;28;20177;-70
2023/09/07 16:18:31;;;;;;;5.57;3.07;;;;;;;;;;5058848;28;20196;-69
2023/09/07 16:20:58;;;;;;;6.70;3.50;;;;;;;;;;5049604;28;20221;-73
2023/09/07 16:23:25;;;;;;;7.77;3.10;;;;;;;;;;5076358;28;20532;-71
2023/09/07 16:26:14;;;;;;;9.00;2.63;;;;;;;;;;5069439;28;20294;-71
2023/09/07 16:28:49;;;;;;;3.97;2.43;;;;;;;;;;5023549;28;20194;-72
2023/09/07 16:35:19;;;;;;;6.60;2.80;;;;;;;;;;5060361;28;20619;-74
2023/09/07 16:41:46;;;;;;;5.87;2.93;;;;;;;;;;5070486;28;20161;-74
2023/09/07 16:48:14;;;;;;;7.67;2.63;;;;;;;;;;5076020;28;20201;-73
2023/09/07 16:50:44;;;;;;;6.30;2.50;;;;;;;;;;5076035;28;20616;-73
2023/09/07 16:57:17;;;;;;;2.83;2.53;;;;;;;;;;5075582;28;20182;-73
2023/09/07 16:59:49;;;;;;;7.83;2.57;;;;;;;;;;5072921;28;20274;-72
2023/09/07 17:10:20;;;;;;;4.47;3.03;;;;;;;;;;5075363;28;20211;-74
2023/09/07 17:16:46;;;;;;;3.83;3.17;;;;;;;;;;5075110;28;20599;-73
2023/09/07 17:23:14;;;;;;;6.73;3.20;;;;;;;;;;5075014;28;20527;-73
2023/09/07 17:29:42;;;;;;;6.10;2.83;;;;;;;;;;5074683;28;20208;-72
2023/09/07 17:32:12;;;;;;;4.63;2.80;;;;;;;;;;5058487;28;20182;-74
2023/09/07 17:34:39;;;;;;;5.10;3.20;;;;;;;;;;5074467;28;20174;-72
2023/09/07 17:41:10;;;;;;;9.23;3.40;;;;;;;;;;5074834;28;20149;-71
2023/09/07 17:47:36;;;;;;;9.40;3.63;;;;;;;;;;5074538;28;20636;-71
2023/09/07 17:50:04;;;;;;;13.70;3.50;;;;;;;;;;5056635;28;20228;-71
2023/09/07 17:52:32;;;;;;;14.33;4.03;;;;;;;;;;5073194;28;20194;-71
2023/09/07 17:54:59;;;;;;;12.60;3.80;;;;;;;;;;5056481;28;20703;-71
2023/09/07 17:57:26;;;;;;;14.70;4.40;;;;;;;;;;5056979;28;20284;-74
2023/09/07 17:59:53;;;;;;;12.83;4.20;;;;;;;;;;5057217;28;20190;-71
2023/09/07 18:02:22;;;;;;;14.40;4.63;;;;;;;;;;5056797;28;20503;-74
2023/09/07 18:08:55;;;;;;;14.97;5.10;;;;;;;;;;5073314;28;20267;-70
2023/09/07 18:11:22;;;;;;;16.67;5.13;;;;;;;;;;5073272;28;20197;-70
2023/09/07 18:13:49;;;;;;;16.43;6.30;;;;;;;;;;5056439;28;20244;-70
2023/09/07 18:16:31;;;;;;;13.60;5.43;;;;;;;;;;5041644;28;20221;-71
2023/09/07 18:22:55;;;;;;;14.73;5.00;;;;;;;;;;5073937;28;20207;-70
2023/09/07 18:25:23;;;;;;;17.90;5.47;;;;;;;;;;5074786;28;20171;-70
2023/09/07 18:27:49;;;;;;;15.67;5.83;;;;;;;;;;5056800;28;20657;-71
2023/09/07 18:30:18;;;;;;;17.73;5.40;;;;;;;;;;5072484;28;20209;-70
2023/09/07 18:32:47;;;;;;;19.30;5.07;;;;;;;;;;5056810;28;20186;-70
2023/09/07 18:39:15;;;;;;;15.47;4.60;;;;;;;;;;5073778;28;20216;-71
2023/09/07 18:41:41;;;;;;;14.40;4.80;;;;;;;;;;5056028;28;20186;-72
2023/09/07 18:48:02;;;;;;;14.63;5.23;;;;;;;;;;5073719;28;20687;-72
2023/09/07 18:50:46;;;;;;;13.77;4.90;;;;;;;;;;5074030;28;20245;-71
2023/09/07 18:53:13;;;;;;;10.57;5.10;;;;;;;;;;5074075;28;20193;-73
2023/09/07 18:55:40;;;;;;;14.80;5.30;;;;;;;;;;5056170;28;20263;-74
2023/09/07 18:58:09;;;;;;;12.80;5.13;;;;;;;;;;5055822;28;20706;-73
2023/09/07 19:00:37;;;;;;;12.90;7.13;;;;;;;;;;5074081;28;20265;-74
2023/09/07 19:03:04;;;;;;;14.97;7.43;;;;;;;;;;5056132;28;20193;-74
2023/09/07 19:05:32;;;;;;;14.53;7.57;;;;;;;;;;5074076;28;20186;-73
2023/09/07 19:07:59;;;;;;;11.33;6.67;;;;;;;;;;5073761;28;20221;-73
2023/09/07 19:10:27;;;;;;;12.87;5.83;;;;;;;;;;5030882;28;20190;-74
2023/09/07 19:12:54;;;;;;;10.60;4.93;;;;;;;;;;5073280;28;20209;-73
2023/09/07 19:15:23;;;;;;;10.03;4.93;;;;;;;;;;5039143;28;20259;-74
2023/09/07 19:17:51;;;;;;;8.60;4.70;;;;;;;;;;5055799;28;20197;-74
2023/09/07 19:20:18;;;;;;;8.43;4.63;;;;;;;;;;5073998;28;20716;-74
2023/09/07 19:22:45;;;;;;;11.67;5.40;;;;;;;;;;5059116;28;20681;-73
2023/09/07 19:25:13;;;;;;;12.80;5.20;;;;;;;;;;5042641;28;20694;-74
2023/09/07 19:28:05;;;;;;;11.90;5.43;;;;;;;;;;5074883;28;20255;-74
2023/09/07 19:30:33;;;;;;;11.73;6.07;;;;;;;;;;5076964;28;20171;-74
2023/09/07 19:37:40;;;;;;;8.83;5.07;;;;;;;;;;5077526;28;20169;-72
2023/09/07 19:44:06;;;;;;;9.03;5.10;;;;;;;;;;5057545;28;20193;-78
2023/09/07 19:46:33;;;;;;;12.53;6.00;;;;;;;;;;5044087;28;20660;-75
2023/09/07 19:49:01;;;;;;;12.07;6.40;;;;;;;;;;5038820;28;20298;-76
2023/09/07 20:02:56;;;;;;;25.10;8.27;;;;;;;;;;5056272;28;20514;-76
2023/09/07 20:05:24;;;;;;;22.90;7.60;;;;;;;;;;5055858;28;20613;-76
2023/09/07 20:07:52;;;;;;;22.57;7.13;;;;;;;;;;5056096;28;20251;-76
2023/09/07 20:18:17;;;;;;;21.30;7.73;;;;;;;;;;5056341;28;20209;-76
2023/09/07 20:20:44;;;;;;;24.40;8.10;;;;;;;;;;5056502;28;20664;-76
2023/09/07 20:27:10;;;;;;;15.87;7.37;;;;;;;;;;5056455;28;20157;-76
2023/09/07 20:41:35;;;;;;;11.73;6.77;;;;;;;;;;5055561;28;20189;-76
2023/09/07 20:44:28;;;;;;;10.87;6.77;;;;;;;;;;5020035;28;20638;-76
2023/09/07 20:46:55;;;;;;;12.93;7.63;;;;;;;;;;5055389;28;20198;-76
2023/09/07 20:49:22;;;;;;;14.73;7.63;;;;;;;;;;5075087;28;20288;-75
2023/09/07 20:55:48;;;;;;;18.03;7.57;;;;;;;;;;5075084;28;20501;-75
2023/09/07 20:58:33;;;;;;;14.90;7.37;;;;;;;;;;5060330;28;20165;-75
2023/09/07 21:01:17;;;;;;;14.87;6.80;;;;;;;;;;5058704;28;20177;-75
2023/09/07 21:03:44;;;;;;;11.70;6.80;;;;;;;;;;5075366;28;20182;-75
2023/09/07 21:06:12;;;;;;;15.07;7.27;;;;;;;;;;5041218;28;20570;-75
2023/09/07 21:08:39;;;;;;;13.03;6.70;;;;;;;;;;5075787;28;20621;-75
2023/09/07 21:15:06;;;;;;;17.73;7.93;;;;;;;;;;5055439;28;20162;-75
2023/09/07 21:17:33;;;;;;;19.80;8.90;;;;;;;;;;5054950;28;20659;-76
2023/09/07 21:23:53;;;;;;;23.10;9.27;;;;;;;;;;5055351;28;20505;-75
2023/09/07 21:26:20;;;;;;;19.70;8.70;;;;;;;;;;5020996;28;20202;-76
2023/09/07 21:28:47;;;;;;;20.30;8.97;;;;;;;;;;5055285;28;20195;-75
2023/09/07 21:31:14;;;;;;;22.50;9.53;;;;;;;;;;5054678;28;20519;-75
2023/09/07 21:33:40;;;;;;;19.57;9.17;;;;;;;;;;5037535;28;20179;-76
2023/09/07 21:40:08;;;;;;;18.83;8.67;;;;;;;;;;5055015;28;20556;-76
2023/09/07 21:46:33;;;;;;;14.73;7.67;;;;;;;;;;5053729;28;20679;-76
2023/09/07 21:52:59;;;;;;;15.30;7.90;;;;;;;;;;5054461;28;20153;-76
2023/09/07 21:59:26;;;;;;;15.80;7.83;;;;;;;;;;5054760;28;20537;-76
2023/09/07 22:01:54;;;;;;;16.13;7.83;;;;;;;;;;5054262;28;20218;-76
2023/09/07 22:08:14;;;;;;;14.83;7.37;;;;;;;;;;5054456;28;20344;-76
2023/09/07 22:10:41;;;;;;;16.43;7.40;;;;;;;;;;5054593;28;20193;-76
2023/09/07 22:13:08;;;;;;;10.80;5.97;;;;;;;;;;5054040;28;20237;-76
2023/09/07 22:15:35;;;;;;;13.93;6.40;;;;;;;;;;5053254;28;20194;-76
2023/09/07 22:18:03;;;;;;;14.97;6.87;;;;;;;;;;5054159;28;20187;-76
2023/09/07 22:20:31;;;;;;;13.73;6.43;;;;;;;;;;5054292;28;20221;-75
2023/09/07 22:22:58;;;;;;;9.93;6.30;;;;;;;;;;5020302;28;20648;-76
2023/09/07 22:25:25;;;;;;;14.60;7.63;;;;;;;;;;5054209;28;20175;-76
2023/09/07 22:27:51;;;;;;;15.30;7.10;;;;;;;;;;5054339;28;20207;-77
2023/09/07 22:30:18;;;;;;;15.20;7.50;;;;;;;;;;5054087;28;20218;-76
2023/09/07 22:36:38;;;;;;;12.40;7.03;;;;;;;;;;5054507;28;20644;-76
2023/09/07 22:43:05;;;;;;;10.60;6.30;;;;;;;;;;5053781;28;20150;-76
2023/09/07 22:45:33;;;;;;;15.23;6.63;;;;;;;;;;5054739;28;20178;-76
2023/09/07 22:51:59;;;;;;;10.47;5.77;;;;;;;;;;5054546;28;20652;-76
2023/09/07 22:54:26;;;;;;;8.43;5.17;;;;;;;;;;5036385;28;20233;-76
2023/09/07 22:56:53;;;;;;;12.80;5.97;;;;;;;;;;5035516;28;20273;-76
2023/09/07 22:59:20;;;;;;;10.50;5.97;;;;;;;;;;5019448;28;20586;-76